createdAt,value
2022-09-10T00:04:33.470Z,1.60
2022-09-10T00:09:35.221Z,1.23
2022-09-10T00:14:36.863Z,1.20
2022-09-10T00:19:38.548Z,1.30
2022-09-10T00:24:40.128Z,1.60
2022-09-10T00:29:41.705Z,1.38
2022-09-10T00:34:43.288Z,1.23
2022-09-10T00:39:44.897Z,1.02
2022-09-10T00:44:46.462Z,1.42
2022-09-10T00:49:52.505Z,1.20
2022-09-10T00:54:54.883Z,1.43
2022-09-10T01:00:03.359Z,0.80
2022-09-10T01:05:07.111Z,0.80
2022-09-10T01:10:13.629Z,0.82
2022-09-10T01:15:48.805Z,0.40
2022-09-10T01:20:57.210Z,0.60
2022-09-10T01:26:21.790Z,0.50
2022-09-10T01:31:54.646Z,0.82
2022-09-10T01:37:04.095Z,0.60
2022-09-10T01:42:06.693Z,0.93
2022-09-10T01:47:50.238Z,0.60
2022-09-10T01:53:10.958Z,0.65
2022-09-10T01:58:34.689Z,0.70
2022-09-10T02:03:45.563Z,0.70
2022-09-10T02:08:52.300Z,0.65
2022-09-10T02:13:54.033Z,0.90
2022-09-10T02:19:05.430Z,0.73
2022-09-10T02:24:11.418Z,0.88
2022-09-10T02:29:15.321Z,0.73
2022-09-10T02:34:17.728Z,0.50
2022-09-10T02:39:21.838Z,0.68
2022-09-10T02:44:23.385Z,1.00
2022-09-10T02:49:24.963Z,0.90
2022-09-10T02:54:26.512Z,0.90
2022-09-10T02:59:29.170Z,0.80
2022-09-10T03:04:32.053Z,0.80
2022-09-10T03:09:35.637Z,0.70
2022-09-10T03:14:37.410Z,0.80
2022-09-10T03:19:40.076Z,0.68
2022-09-10T03:24:42.014Z,0.75
2022-09-10T03:29:44.386Z,0.85
2022-09-10T03:34:49.419Z,0.90
2022-09-10T03:39:52.635Z,1.13
2022-09-10T03:44:56.312Z,1.52
2022-09-10T03:49:59.784Z,1.38
2022-09-10T03:55:01.469Z,1.10
2022-09-10T04:00:05.256Z,1.20
2022-09-10T04:05:16.777Z,1.17
2022-09-10T04:10:20.855Z,1.15
2022-09-10T04:15:24.761Z,0.90
2022-09-10T04:20:28.329Z,1.05
2022-09-10T04:25:38.028Z,1.35
2022-09-10T04:30:40.339Z,1.10
2022-09-10T04:35:43.641Z,0.90
2022-09-10T04:40:47.646Z,1.27
2022-09-10T04:45:50.043Z,1.40
2022-09-10T04:51:14.791Z,1.15
2022-09-10T04:56:15.037Z,1.40
2022-09-10T05:01:17.435Z,1.42
2022-09-10T05:06:21.277Z,1.17
2022-09-10T05:11:25.470Z,1.50
2022-09-10T05:16:28.549Z,1.65
2022-09-10T05:21:31.266Z,1.40
2022-09-10T05:26:33.175Z,1.48
2022-09-10T05:31:35.584Z,1.30
2022-09-10T05:36:37.690Z,1.48
2022-09-10T05:41:39.583Z,1.50
2022-09-10T05:46:42.518Z,1.30
2022-09-10T05:51:48.167Z,1.75
2022-09-10T05:56:51.324Z,1.35
2022-09-10T06:01:53.557Z,1.00
2022-09-10T06:06:56.908Z,0.90
2022-09-10T06:11:58.645Z,1.17
2022-09-10T06:17:01.377Z,1.10
2022-09-10T06:22:06.938Z,0.50
2022-09-10T06:27:14.328Z,0.35
2022-09-10T06:32:18.752Z,0.50
2022-09-10T06:37:24.156Z,0.47
2022-09-10T06:42:26.657Z,0.60
2022-09-10T06:53:15.097Z,0.40
2022-09-10T06:58:22.230Z,0.35
2022-09-10T07:03:25.768Z,0.50
2022-09-10T07:08:28.387Z,0.40
2022-09-10T07:13:31.835Z,0.50
2022-09-10T07:18:35.261Z,0.50
2022-09-10T07:23:39.247Z,0.30
2022-09-10T07:28:44.764Z,0.22
2022-09-10T07:33:48.167Z,0.33
2022-09-10T07:38:57.559Z,0.40
2022-09-10T07:44:00.040Z,0.50
2022-09-10T07:49:06.881Z,0.43
2022-09-10T07:54:08.567Z,0.32
2022-09-10T07:59:17.263Z,0.50
2022-09-10T08:04:23.506Z,0.77
2022-09-10T08:09:27.777Z,0.43
2022-09-10T08:14:31.646Z,0.50
2022-09-10T08:19:34.135Z,0.40
2022-09-10T08:24:36.758Z,0.38
2022-09-10T08:29:39.650Z,0.35
2022-09-10T08:34:43.546Z,0.50
2022-09-10T08:39:46.644Z,0.38
2022-09-10T08:44:58.791Z,0.60
2022-09-10T08:50:23.472Z,0.50
2022-09-10T08:55:33.760Z,0.40
2022-09-10T09:00:39.825Z,0.50
2022-09-10T09:05:49.517Z,0.55
2022-09-10T09:11:13.178Z,0.40
2022-09-10T09:16:17.785Z,0.43
2022-09-10T09:21:34.100Z,0.43
2022-09-10T09:26:36.931Z,0.43
2022-09-10T09:31:49.626Z,0.40
2022-09-10T09:36:55.877Z,0.60
2022-09-10T09:42:21.296Z,0.70
2022-09-10T09:47:24.263Z,0.47
2022-09-10T09:52:32.430Z,0.60
2022-09-10T09:57:34.136Z,0.40
2022-09-10T10:02:36.811Z,0.40
2022-09-10T10:07:39.036Z,0.50
2022-09-10T10:12:49.436Z,0.60
2022-09-10T10:17:51.566Z,0.45
2022-09-10T10:22:53.137Z,0.40
2022-09-10T10:27:54.835Z,0.40
2022-09-10T10:32:59.523Z,0.40
2022-09-10T10:38:07.428Z,0.50
2022-09-10T10:43:42.219Z,0.40
2022-09-10T10:49:17.618Z,0.27
2022-09-10T10:54:19.162Z,0.40
2022-09-10T10:59:28.655Z,0.43
2022-09-10T11:04:48.813Z,0.45
2022-09-10T11:10:03.920Z,0.30
2022-09-10T11:15:37.516Z,0.40
2022-09-10T11:20:47.302Z,0.40
2022-09-10T11:26:03.761Z,0.50
2022-09-10T11:31:15.579Z,0.55
2022-09-10T11:36:42.901Z,0.50
2022-09-10T11:41:47.671Z,0.30
2022-09-10T11:47:25.221Z,0.40
2022-09-10T11:52:30.108Z,0.55
2022-09-10T11:57:49.102Z,0.30
2022-09-10T12:03:27.203Z,0.35
2022-09-10T12:08:36.744Z,0.30
2022-09-10T12:13:41.704Z,0.40
2022-09-10T12:18:47.933Z,0.43
2022-09-10T12:23:51.116Z,0.60
2022-09-10T12:28:52.656Z,0.35
2022-09-10T12:33:54.232Z,0.50
2022-09-10T12:39:22.597Z,0.50
2022-09-10T12:44:36.401Z,0.50
2022-09-10T12:49:51.855Z,0.50
2022-09-10T12:55:11.904Z,0.33
2022-09-10T13:00:18.288Z,0.38
2022-09-10T13:05:29.223Z,0.70
2022-09-10T13:10:31.465Z,0.30
2022-09-10T13:15:38.070Z,0.40
2022-09-10T13:20:40.276Z,0.45
2022-09-10T13:25:44.775Z,0.40
2022-09-10T13:30:46.879Z,0.40
2022-09-10T13:36:30.079Z,0.50
2022-09-10T13:42:15.103Z,0.25
2022-09-10T13:47:22.529Z,0.40
2022-09-10T13:52:46.302Z,0.38
2022-09-10T13:57:54.743Z,0.20
2022-09-10T14:03:01.344Z,0.20
2022-09-10T14:08:53.908Z,0.40
2022-09-10T14:14:09.675Z,0.47
2022-09-10T14:19:27.812Z,0.30
2022-09-10T14:24:50.576Z,0.40
2022-09-10T14:29:56.921Z,0.43
2022-09-10T14:34:59.443Z,0.68
2022-09-10T14:40:14.450Z,0.50
2022-09-10T14:45:37.911Z,0.40
2022-09-10T14:50:39.498Z,0.47
2022-09-10T14:55:41.550Z,0.47
2022-09-10T15:00:43.116Z,0.43
2022-09-10T15:05:46.093Z,0.52
2022-09-10T15:10:50.256Z,0.45
2022-09-10T15:15:53.783Z,0.50
2022-09-10T15:20:55.364Z,0.50
2022-09-10T15:25:58.121Z,0.50
2022-09-10T15:30:59.768Z,0.30
2022-09-10T15:36:01.916Z,0.40
2022-09-10T15:41:12.995Z,0.32
2022-09-10T15:46:17.106Z,0.20
2022-09-10T15:51:21.483Z,0.40
2022-09-10T15:56:27.088Z,0.30
2022-09-10T16:01:29.266Z,0.37
2022-09-10T16:06:37.712Z,0.70
2022-09-10T16:11:42.323Z,0.50
2022-09-10T16:16:43.893Z,0.47
2022-09-10T16:21:45.856Z,0.40
2022-09-10T16:26:49.135Z,0.80
2022-09-10T16:31:50.746Z,0.50
2022-09-10T16:36:53.003Z,0.40
2022-09-10T16:41:56.039Z,0.60
2022-09-10T16:46:59.314Z,0.30
2022-09-10T16:52:00.880Z,0.80
2022-09-10T16:57:02.517Z,0.70
2022-09-10T17:02:05.405Z,0.55
2022-09-10T17:07:07.055Z,0.75
2022-09-10T17:12:10.499Z,0.50
2022-09-10T17:17:12.595Z,0.70
2022-09-10T17:22:14.062Z,0.80
2022-09-10T17:27:15.563Z,0.77
2022-09-10T17:32:17.071Z,0.63
2022-09-10T17:37:19.772Z,1.13
2022-09-10T17:42:21.291Z,1.10
2022-09-10T17:47:23.129Z,1.10
2022-09-10T17:52:25.779Z,1.10
2022-09-10T17:57:27.284Z,1.27
2022-09-10T18:02:29.039Z,1.30
2022-09-10T18:07:31.157Z,2.20
2022-09-10T18:12:32.748Z,2.00
2022-09-10T18:17:34.269Z,1.42
2022-09-10T18:22:35.750Z,1.58
2022-09-10T18:27:37.755Z,1.58
2022-09-10T18:32:39.366Z,1.80
2022-09-10T18:37:40.830Z,1.60
2022-09-10T18:42:46.140Z,1.90
2022-09-10T18:47:48.304Z,2.00
2022-09-10T18:52:49.866Z,1.80
2022-09-10T18:57:51.348Z,2.88
2022-09-10T19:10:02.492Z,1.60
2022-09-10T19:21:41.609Z,1.83
2022-09-10T19:26:46.726Z,2.55
2022-09-10T19:33:01.321Z,2.08
2022-09-10T19:38:15.799Z,2.40
2022-09-10T19:43:25.057Z,2.92
2022-09-10T19:48:26.669Z,5.15
2022-09-10T19:53:28.491Z,4.60
2022-09-10T19:58:30.168Z,4.30
2022-09-10T20:03:32.045Z,2.00
2022-09-10T20:08:35.180Z,1.27
2022-09-10T20:13:37.200Z,1.35
2022-09-10T20:18:39.072Z,1.40
2022-09-10T20:23:43.413Z,1.10
2022-09-10T20:28:49.988Z,1.27
2022-09-10T20:34:03.090Z,0.80
2022-09-10T20:39:12.038Z,0.82
2022-09-10T20:44:16.722Z,0.68
2022-09-10T20:49:18.631Z,0.70
2022-09-10T20:54:20.237Z,0.80
2022-09-10T20:59:27.700Z,0.73
2022-09-10T21:04:29.554Z,0.70
2022-09-10T21:09:31.362Z,0.70
2022-09-10T21:14:33.307Z,0.70
2022-09-10T21:19:34.849Z,0.95
2022-09-10T21:24:36.410Z,0.93
2022-09-10T21:29:37.965Z,0.70
2022-09-10T21:34:40.328Z,0.88
2022-09-10T21:39:41.885Z,0.70
2022-09-10T21:44:43.527Z,0.70
2022-09-10T21:49:45.088Z,0.80
2022-09-10T21:54:46.773Z,0.55
2022-09-10T21:59:48.802Z,0.70
2022-09-10T22:04:50.345Z,0.50
2022-09-10T22:09:51.865Z,0.60
2022-09-10T22:14:53.759Z,0.73
2022-09-10T22:19:55.414Z,0.70
2022-09-10T22:24:56.918Z,0.80
2022-09-10T22:29:59.027Z,0.70
2022-09-10T22:35:00.593Z,0.82
2022-09-10T22:40:02.796Z,0.88
2022-09-10T22:45:04.916Z,0.80
2022-09-10T22:50:06.565Z,0.60
2022-09-10T22:55:08.682Z,0.90
2022-09-10T23:00:13.659Z,1.02
2022-09-10T23:05:15.344Z,1.10
2022-09-10T23:10:18.047Z,0.75
2022-09-10T23:15:19.582Z,1.25
2022-09-10T23:20:21.277Z,0.80
2022-09-10T23:25:22.869Z,1.00
2022-09-10T23:30:24.456Z,1.00
2022-09-10T23:35:26.164Z,1.15
2022-09-10T23:40:32.282Z,1.30
2022-09-10T23:45:35.895Z,1.08
2022-09-10T23:50:37.417Z,1.50
2022-09-10T23:55:40.120Z,1.08
